Time,TemperatureF,DewpointF,PressureIn,WindDirection,WindDirectionDegrees,WindSpeedMPH,WindSpeedGustMPH,Humidity,HourlyPrecipIn,Conditions,Clouds,dailyrainin,SoftwareType,DateUTC
2013-04-23 00:01:00,28.7,24.5,30.62,ENE,58,0.0,0.0,84,0.00,,,0.00,WeatherCatV1.15B25,2013-04-23 04:01:00,
2013-04-23 00:02:00,28.7,24.5,30.62,ENE,58,0.0,0.0,84,0.00,,,0.00,WeatherCatV1.15B25,2013-04-23 04:02:00,
2013-04-23 00:03:00,28.7,24.2,30.62,ENE,57,0.0,0.0,83,0.00,,,0.00,WeatherCatV1.15B25,2013-04-23 04:03:00,
2013-04-23 00:07:00,28.7,24.5,30.62,ENE,58,0.0,0.0,84,0.00,,,0.00,WeatherCatV1.15B25,2013-04-23 04:07:00,
2013-04-23 00:12:00,28.7,24.5,30.62,ENE,57,0.0,0.0,84,0.00,,,0.00,WeatherCatV1.15B25,2013-04-23 04:12:00,
2013-04-23 00:15:00,28.7,24.5,30.62,ENE,57,0.0,0.0,84,0.00,,,0.00,WeatherCatV1.15B25,2013-04-23 04:15:00,
2013-04-23 00:20:00,28.6,24.4,30.62,ENE,57,0.0,0.0,84,0.00,,,0.00,WeatherCatV1.15B25,2013-04-23 04:20:00,
2013-04-23 00:25:00,28.5,24.3,30.62,ENE,58,0.0,0.0,84,0.00,,,0.00,WeatherCatV1.15B25,2013-04-23 04:25:00,
2013-04-23 00:30:00,28.4,24.5,30.62,ENE,58,0.0,0.0,85,0.00,,,0.00,WeatherCatV1.15B25,2013-04-23 04:30:00,
2013-04-23 00:35:00,28.3,24.4,30.62,ENE,58,0.0,0.0,85,0.00,,,0.00,WeatherCatV1.15B25,2013-04-23 04:35:00,
2013-04-23 00:40:00,28.1,24.2,30.61,ENE,58,0.0,0.0,85,0.00,,,0.00,WeatherCatV1.15B25,2013-04-23 04:40:00,
2013-04-23 00:45:00,28.0,24.1,30.61,ENE,57,0.0,0.0,85,0.00,,,0.00,WeatherCatV1.15B25,2013-04-23 04:45:00,
2013-04-23 00:50:00,27.8,23.9,30.61,ENE,58,0.0,0.0,85,0.00,,,0.00,WeatherCatV1.15B25,2013-04-23 04:50:00,
2013-04-23 00:55:00,27.8,24.2,30.61,ENE,58,0.0,0.0,86,0.00,,,0.00,WeatherCatV1.15B25,2013-04-23 04:55:00,
2013-04-23 01:00:00,27.9,24.3,30.60,ENE,57,0.0,0.0,86,0.00,,,0.00,WeatherCatV1.15B25,2013-04-23 05:00:00,
2013-04-23 01:05:00,27.7,24.1,30.61,ENE,58,0.0,0.0,86,0.00,,,0.00,WeatherCatV1.15B25,2013-04-23 05:05:00,
2013-04-23 01:10:00,27.5,23.9,30.61,ENE,58,0.0,0.0,86,0.00,,,0.00,WeatherCatV1.15B25,2013-04-23 05:10:00,
2013-04-23 01:15:00,27.4,23.8,30.61,ENE,58,0.0,0.0,86,0.00,,,0.00,WeatherCatV1.15B25,2013-04-23 05:15:00,
2013-04-23 01:20:00,27.3,23.7,30.60,ENE,57,0.0,0.0,86,0.00,,,0.00,WeatherCatV1.15B25,2013-04-23 05:20:00,
2013-04-23 01:25:00,27.2,23.6,30.60,ENE,58,0.0,0.0,86,0.00,,,0.00,WeatherCatV1.15B25,2013-04-23 05:25:00,
2013-04-23 01:30:00,27.1,23.5,30.60,ENE,58,0.0,0.0,86,0.00,,,0.00,WeatherCatV1.15B25,2013-04-23 05:30:00,
2013-04-23 01:35:00,27.0,23.4,30.60,ENE,58,0.0,0.0,86,0.00,,,0.00,WeatherCatV1.15B25,2013-04-23 05:35:00,
2013-04-23 01:40:00,26.9,23.6,30.60,ENE,57,0.0,0.0,87,0.00,,,0.00,WeatherCatV1.15B25,2013-04-23 05:40:00,
2013-04-23 01:45:00,26.8,23.5,30.59,ENE,58,0.0,0.0,87,0.00,,,0.00,WeatherCatV1.15B25,2013-04-23 05:45:00,
2013-04-23 01:50:00,26.7,23.4,30.59,ENE,58,0.0,0.0,87,0.00,,,0.00,WeatherCatV1.15B25,2013-04-23 05:50:00,
2013-04-23 01:55:00,26.6,23.0,30.59,ENE,57,0.0,0.0,86,0.00,,,0.00,WeatherCatV1.15B25,2013-04-23 05:55:00,
2013-04-23 02:00:00,26.6,23.0,30.59,ENE,58,0.0,0.0,86,0.00,,,0.00,WeatherCatV1.15B25,2013-04-23 06:00:00,
2013-04-23 02:05:00,26.5,22.9,30.59,ENE,58,0.0,0.0,86,0.00,,,0.00,WeatherCatV1.15B25,2013-04-23 06:05:00,
2013-04-23 02:10:00,26.3,22.7,30.59,ENE,57,0.0,0.0,86,0.00,,,0.00,WeatherCatV1.15B25,2013-04-23 06:10:00,
2013-04-23 02:15:00,26.2,22.6,30.59,ENE,57,0.0,0.0,86,0.00,,,0.00,WeatherCatV1.15B25,2013-04-23 06:15:00,
2013-04-23 02:20:00,26.1,22.5,30.59,ENE,58,0.0,0.0,86,0.00,,,0.00,WeatherCatV1.15B25,2013-04-23 06:20:00,
2013-04-23 02:25:00,26.1,22.5,30.59,ENE,58,0.0,0.0,86,0.00,,,0.00,WeatherCatV1.15B25,2013-04-23 06:25:00,
2013-04-23 02:30:00,26.0,22.1,30.58,ENE,57,0.0,0.0,85,0.00,,,0.00,WeatherCatV1.15B25,2013-04-23 06:30:00,
2013-04-23 02:35:00,26.0,22.1,30.58,ENE,58,0.0,0.0,85,0.00,,,0.00,WeatherCatV1.15B25,2013-04-23 06:35:00,
2013-04-23 02:40:00,26.0,22.1,30.57,ENE,58,0.0,0.0,85,0.00,,,0.00,WeatherCatV1.15B25,2013-04-23 06:40:00,
2013-04-23 02:45:00,25.9,22.0,30.57,ENE,58,0.0,0.0,85,0.00,,,0.00,WeatherCatV1.15B25,2013-04-23 06:45:00,
2013-04-23 02:50:00,25.7,21.8,30.57,ENE,58,0.0,0.0,85,0.00,,,0.00,WeatherCatV1.15B25,2013-04-23 06:50:00,
2013-04-23 02:55:00,25.5,21.6,30.57,ENE,58,0.0,0.0,85,0.00,,,0.00,WeatherCatV1.15B25,2013-04-23 06:55:00,
2013-04-23 03:00:00,25.5,21.6,30.56,ENE,58,0.0,0.0,85,0.00,,,0.00,WeatherCatV1.15B25,2013-04-23 07:00:00,
2013-04-23 03:05:00,25.3,21.2,30.56,ENE,58,0.0,0.0,84,0.00,,,0.00,WeatherCatV1.15B25,2013-04-23 07:05:00,
2013-04-23 03:10:00,25.3,21.2,30.56,ENE,57,0.0,0.0,84,0.00,,,0.00,WeatherCatV1.15B25,2013-04-23 07:10:00,
2013-04-23 03:15:00,25.3,21.2,30.56,ENE,58,0.0,0.0,84,0.00,,,0.00,WeatherCatV1.15B25,2013-04-23 07:15:00,
2013-04-23 03:20:00,25.3,21.2,30.56,ENE,58,0.0,0.0,84,0.00,,,0.00,WeatherCatV1.15B25,2013-04-23 07:20:00,
2013-04-23 03:25:00,25.2,21.1,30.56,ENE,58,0.0,0.0,84,0.00,,,0.00,WeatherCatV1.15B25,2013-04-23 07:25:00,
2013-04-23 03:30:00,25.1,21.0,30.56,ENE,58,0.0,0.0,84,0.00,,,0.00,WeatherCatV1.15B25,2013-04-23 07:30:00,
2013-04-23 03:35:00,25.1,21.0,30.56,ENE,58,0.0,0.0,84,0.00,,,0.00,WeatherCatV1.15B25,2013-04-23 07:35:00,
2013-04-23 03:40:00,25.0,20.6,30.55,ENE,58,0.0,0.0,83,0.00,,,0.00,WeatherCatV1.15B25,2013-04-23 07:40:00,
2013-04-23 03:45:00,25.1,20.7,30.55,ENE,57,0.0,0.0,83,0.00,,,0.00,WeatherCatV1.15B25,2013-04-23 07:45:00,
2013-04-23 03:50:00,25.0,20.6,30.55,ENE,58,0.0,0.0,83,0.00,,,0.00,WeatherCatV1.15B25,2013-04-23 07:50:00,
2013-04-23 03:55:00,25.0,20.6,30.56,ENE,58,0.0,0.0,83,0.00,,,0.00,WeatherCatV1.15B25,2013-04-23 07:55:00,
2013-04-23 04:00:00,24.9,20.5,30.56,ENE,58,0.0,0.0,83,0.00,,,0.00,WeatherCatV1.15B25,2013-04-23 08:00:00,
2013-04-23 04:05:00,24.8,20.4,30.55,ENE,58,0.0,0.0,83,0.00,,,0.00,WeatherCatV1.15B25,2013-04-23 08:05:00,
2013-04-23 04:10:00,24.7,20.3,30.55,ENE,58,0.0,0.0,83,0.00,,,0.00,WeatherCatV1.15B25,2013-04-23 08:10:00,
2013-04-23 04:15:00,24.5,19.8,30.55,ENE,58,0.0,0.0,82,0.00,,,0.00,WeatherCatV1.15B25,2013-04-23 08:15:00,
2013-04-23 04:20:00,24.3,19.6,30.55,ENE,57,0.0,0.0,82,0.00,,,0.00,WeatherCatV1.15B25,2013-04-23 08:20:00,
2013-04-23 04:25:00,24.2,19.5,30.56,ENE,58,0.0,0.0,82,0.00,,,0.00,WeatherCatV1.15B25,2013-04-23 08:25:00,
2013-04-23 04:30:00,24.2,19.5,30.55,ENE,58,0.0,0.0,82,0.00,,,0.00,WeatherCatV1.15B25,2013-04-23 08:30:00,
2013-04-23 04:35:00,24.2,19.5,30.55,ENE,58,0.0,0.0,82,0.00,,,0.00,WeatherCatV1.15B25,2013-04-23 08:35:00,
2013-04-23 04:40:00,24.3,19.6,30.55,ENE,58,0.0,0.0,82,0.00,,,0.00,WeatherCatV1.15B25,2013-04-23 08:40:00,
2013-04-23 04:45:00,24.3,19.3,30.55,ENE,57,0.0,0.0,81,0.00,,,0.00,WeatherCatV1.15B25,2013-04-23 08:45:00,
2013-04-23 04:50:00,24.3,19.3,30.55,ENE,58,0.0,0.0,81,0.00,,,0.00,WeatherCatV1.15B25,2013-04-23 08:50:00,
2013-04-23 04:55:00,24.1,19.1,30.55,ENE,58,0.0,0.0,81,0.00,,,0.00,WeatherCatV1.15B25,2013-04-23 08:55:00,
2013-04-23 05:00:00,24.0,19.3,30.55,ENE,57,0.0,0.0,82,0.00,,,0.00,WeatherCatV1.15B25,2013-04-23 09:00:00,
2013-04-23 05:05:00,23.9,19.2,30.55,ENE,58,0.0,0.0,82,0.00,,,0.00,WeatherCatV1.15B25,2013-04-23 09:05:00,
2013-04-23 05:10:00,23.8,18.8,30.55,ENE,58,0.0,0.0,81,0.00,,,0.00,WeatherCatV1.15B25,2013-04-23 09:10:00,
2013-04-23 05:15:00,23.8,19.1,30.55,ENE,58,0.0,0.0,82,0.00,,,0.00,WeatherCatV1.15B25,2013-04-23 09:15:00,
2013-04-23 05:20:00,23.7,19.0,30.55,ENE,57,0.0,0.0,82,0.00,,,0.00,WeatherCatV1.15B25,2013-04-23 09:20:00,
2013-04-23 05:25:00,23.6,19.2,30.55,ENE,58,0.0,0.0,83,0.00,,,0.00,WeatherCatV1.15B25,2013-04-23 09:25:00,
2013-04-23 05:30:00,23.6,19.2,30.55,ENE,58,0.0,0.0,83,0.00,,,0.00,WeatherCatV1.15B25,2013-04-23 09:30:00,
2013-04-23 05:35:00,23.5,18.8,30.55,ENE,57,0.0,0.0,82,0.00,,,0.00,WeatherCatV1.15B25,2013-04-23 09:35:00,
2013-04-23 05:40:00,23.6,19.2,30.55,ENE,57,0.0,0.0,83,0.00,,,0.00,WeatherCatV1.15B25,2013-04-23 09:40:00,
2013-04-23 05:45:00,23.7,19.0,30.55,ENE,58,0.0,0.0,82,0.00,,,0.00,WeatherCatV1.15B25,2013-04-23 09:45:00,
2013-04-23 05:50:00,23.6,18.9,30.55,ENE,58,0.0,0.0,82,0.00,,,0.00,WeatherCatV1.15B25,2013-04-23 09:50:00,
2013-04-23 05:55:00,23.5,18.8,30.55,ENE,57,0.0,0.0,82,0.00,,,0.00,WeatherCatV1.15B25,2013-04-23 09:55:00,
2013-04-23 06:00:00,23.3,18.6,30.56,ENE,58,0.0,0.0,82,0.00,,,0.00,WeatherCatV1.15B25,2013-04-23 10:00:00,
2013-04-23 06:05:00,23.2,18.5,30.56,ENE,58,0.0,0.0,82,0.00,,,0.00,WeatherCatV1.15B25,2013-04-23 10:05:00,
2013-04-23 06:10:00,23.3,18.9,30.56,ENE,58,0.0,0.0,83,0.00,,,0.00,WeatherCatV1.15B25,2013-04-23 10:10:00,
2013-04-23 06:15:00,23.3,18.9,30.56,ENE,58,0.0,0.0,83,0.00,,,0.00,WeatherCatV1.15B25,2013-04-23 10:15:00,
2013-04-23 06:20:00,23.4,19.0,30.56,ENE,57,0.0,0.0,83,0.00,,,0.00,WeatherCatV1.15B25,2013-04-23 10:20:00,
2013-04-23 06:25:00,23.6,19.2,30.56,ENE,58,0.0,0.0,83,0.00,,,0.00,WeatherCatV1.15B25,2013-04-23 10:25:00,
2013-04-23 06:30:00,23.8,19.4,30.56,ENE,57,0.0,0.0,83,0.00,,,0.00,WeatherCatV1.15B25,2013-04-23 10:30:00,
2013-04-23 06:35:00,23.8,19.1,30.56,ENE,57,0.0,0.0,82,0.00,,,0.00,WeatherCatV1.15B25,2013-04-23 10:35:00,
2013-04-23 06:40:00,23.8,19.4,30.56,ENE,57,0.0,0.0,83,0.00,,,0.00,WeatherCatV1.15B25,2013-04-23 10:40:00,
2013-04-23 06:45:00,23.7,19.3,30.56,ENE,58,0.0,0.0,83,0.00,,,0.00,WeatherCatV1.15B25,2013-04-23 10:45:00,
2013-04-23 06:50:00,23.7,19.6,30.56,ENE,57,0.0,0.0,84,0.00,,,0.00,WeatherCatV1.15B25,2013-04-23 10:50:00,
2013-04-23 06:55:00,23.9,19.8,30.56,ENE,57,0.0,0.0,84,0.00,,,0.00,WeatherCatV1.15B25,2013-04-23 10:55:00,
2013-04-23 07:00:00,24.1,20.0,30.56,ENE,58,0.0,0.0,84,0.00,,,0.00,WeatherCatV1.15B25,2013-04-23 11:00:00,
2013-04-23 07:05:00,24.3,20.5,30.56,ENE,58,0.0,0.0,85,0.00,,,0.00,WeatherCatV1.15B25,2013-04-23 11:05:00,
2013-04-23 07:10:00,24.6,20.7,30.56,ENE,57,0.0,0.0,85,0.00,,,0.00,WeatherCatV1.15B25,2013-04-23 11:10:00,
2013-04-23 07:15:00,25.0,21.1,30.57,ENE,57,0.0,0.0,85,0.00,,,0.00,WeatherCatV1.15B25,2013-04-23 11:15:00,
2013-04-23 07:20:00,25.4,21.5,30.57,ENE,58,0.0,0.0,85,0.00,,,0.00,WeatherCatV1.15B25,2013-04-23 11:20:00,
2013-04-23 07:25:00,26.0,22.1,30.56,ENE,58,0.0,1.0,85,0.00,,,0.00,WeatherCatV1.15B25,2013-04-23 11:25:00,
2013-04-23 07:30:00,26.8,22.9,30.56,ENE,57,0.0,0.0,85,0.00,,,0.00,WeatherCatV1.15B25,2013-04-23 11:30:00,
2013-04-23 07:35:00,27.3,23.1,30.56,ENE,57,0.0,0.0,84,0.00,,,0.00,WeatherCatV1.15B25,2013-04-23 11:35:00,
2013-04-23 07:40:00,27.9,23.4,30.56,ENE,58,0.0,0.0,83,0.00,,,0.00,WeatherCatV1.15B25,2013-04-23 11:40:00,
2013-04-23 07:45:00,28.4,23.9,30.56,ENE,57,0.0,0.0,83,0.00,,,0.00,WeatherCatV1.15B25,2013-04-23 11:45:00,
2013-04-23 07:50:00,28.8,24.0,30.56,ENE,57,0.0,0.0,82,0.00,,,0.00,WeatherCatV1.15B25,2013-04-23 11:50:00,
2013-04-23 07:55:00,29.3,24.2,30.56,ENE,58,0.0,0.0,81,0.00,,,0.00,WeatherCatV1.15B25,2013-04-23 11:55:00,
2013-04-23 08:00:00,29.8,24.7,30.56,ENE,58,0.0,0.0,81,0.00,,,0.00,WeatherCatV1.15B25,2013-04-23 12:00:00,
2013-04-23 08:05:00,30.3,24.9,30.56,ENE,57,0.0,0.0,80,0.00,,,0.00,WeatherCatV1.15B25,2013-04-23 12:05:00,
2013-04-23 08:10:00,30.8,25.4,30.55,ENE,57,0.0,0.0,80,0.00,,,0.00,WeatherCatV1.15B25,2013-04-23 12:10:00,
2013-04-23 08:15:00,31.3,25.9,30.55,ENE,58,0.0,0.0,80,0.00,,,0.00,WeatherCatV1.15B25,2013-04-23 12:15:00,
2013-04-23 08:20:00,31.9,26.4,30.55,ENE,57,0.0,0.0,80,0.00,,,0.00,WeatherCatV1.15B25,2013-04-23 12:20:00,
2013-04-23 08:25:00,32.6,26.5,30.55,ENE,57,0.0,0.0,78,0.00,,,0.00,WeatherCatV1.15B25,2013-04-23 12:25:00,
2013-04-23 08:30:00,33.0,26.3,30.55,ENE,58,1.0,1.0,76,0.00,,,0.00,WeatherCatV1.15B25,2013-04-23 12:30:00,
2013-04-23 08:35:00,33.2,26.1,30.55,ENE,58,0.0,1.0,75,0.00,,,0.00,WeatherCatV1.15B25,2013-04-23 12:35:00,
2013-04-23 08:40:00,33.4,26.3,30.54,ENE,58,0.0,1.0,75,0.00,,,0.00,WeatherCatV1.15B25,2013-04-23 12:40:00,
2013-04-23 08:45:00,33.7,26.3,30.53,ENE,57,2.0,4.0,74,0.00,,,0.00,WeatherCatV1.15B25,2013-04-23 12:45:00,
2013-04-23 08:50:00,33.9,26.2,30.53,ENE,58,1.0,2.0,73,0.00,,,0.00,WeatherCatV1.15B25,2013-04-23 12:50:00,
2013-04-23 08:55:00,34.2,26.1,30.53,SW,230,3.0,3.0,72,0.00,,,0.00,WeatherCatV1.15B25,2013-04-23 12:55:00,
2013-04-23 09:00:00,34.3,26.2,30.54,SSW,197,2.0,2.0,72,0.00,,,0.00,WeatherCatV1.15B25,2013-04-23 13:00:00,
2013-04-23 09:05:00,34.4,26.7,30.54,SSW,196,1.0,1.0,73,0.00,,,0.00,WeatherCatV1.15B25,2013-04-23 13:05:00,
2013-04-23 09:10:00,34.4,26.3,30.53,SSW,197,0.0,0.0,72,0.00,,,0.00,WeatherCatV1.15B25,2013-04-23 13:10:00,
2013-04-23 09:15:00,34.4,26.0,30.53,SSW,197,0.0,3.0,71,0.00,,,0.00,WeatherCatV1.15B25,2013-04-23 13:15:00,
2013-04-23 09:20:00,35.0,26.9,30.53,SSW,196,1.0,2.0,72,0.00,,,0.00,WeatherCatV1.15B25,2013-04-23 13:20:00,
2013-04-23 09:25:00,35.4,27.3,30.53,SSE,164,1.0,2.0,72,0.00,,,0.00,WeatherCatV1.15B25,2013-04-23 13:25:00,
2013-04-23 09:30:00,35.8,27.0,30.52,SSE,165,1.0,3.0,70,0.00,,,0.00,WeatherCatV1.15B25,2013-04-23 13:30:00,
2013-04-23 09:35:00,35.9,27.1,30.52,ENE,75,0.0,3.0,70,0.00,,,0.00,WeatherCatV1.15B25,2013-04-23 13:35:00,
2013-04-23 09:40:00,36.1,27.3,30.52,SSE,150,0.0,3.0,70,0.00,,,0.00,WeatherCatV1.15B25,2013-04-23 13:40:00,
2013-04-23 09:45:00,36.3,27.5,30.52,SSW,199,2.0,3.0,70,0.00,,,0.00,WeatherCatV1.15B25,2013-04-23 13:45:00,
2013-04-23 09:50:00,36.8,27.9,30.51,ESE,113,0.0,3.0,70,0.00,,,0.00,WeatherCatV1.15B25,2013-04-23 13:50:00,
2013-04-23 09:55:00,37.3,28.1,30.51,SSE,158,2.0,3.0,69,0.00,,,0.00,WeatherCatV1.15B25,2013-04-23 13:55:00,
2013-04-23 10:00:00,37.3,27.7,30.51,South,185,0.0,3.0,68,0.00,,,0.00,WeatherCatV1.15B25,2013-04-23 14:00:00,
2013-04-23 10:05:00,37.4,28.2,30.51,SSE,155,2.0,3.0,69,0.00,,,0.00,WeatherCatV1.15B25,2013-04-23 14:05:00,
2013-04-23 10:10:00,37.8,28.6,30.51,South,169,4.0,4.0,69,0.00,,,0.00,WeatherCatV1.15B25,2013-04-23 14:10:00,
2013-04-23 10:15:00,37.7,28.1,30.50,SSE,159,1.0,2.0,68,0.00,,,0.00,WeatherCatV1.15B25,2013-04-23 14:15:00,
2013-04-23 10:20:00,37.7,28.1,30.50,SSW,209,0.0,3.0,68,0.00,,,0.00,WeatherCatV1.15B25,2013-04-23 14:20:00,
2013-04-23 10:25:00,37.7,28.1,30.50,South,181,0.0,4.0,68,0.00,,,0.00,WeatherCatV1.15B25,2013-04-23 14:25:00,
2013-04-23 10:30:00,37.7,28.5,30.50,SSE,148,4.0,4.0,69,0.00,,,0.00,WeatherCatV1.15B25,2013-04-23 14:30:00,
2013-04-23 10:35:00,37.6,28.0,30.50,SSE,157,0.0,6.0,68,0.00,,,0.00,WeatherCatV1.15B25,2013-04-23 14:35:00,
2013-04-23 10:40:00,37.4,28.5,30.50,SW,234,4.0,4.0,70,0.00,,,0.00,WeatherCatV1.15B25,2013-04-23 14:40:00,
2013-04-23 10:45:00,37.2,27.6,30.50,WSW,258,0.0,2.0,68,0.00,,,0.00,WeatherCatV1.15B25,2013-04-23 14:45:00,
2013-04-23 10:50:00,37.3,27.7,30.50,SW,221,0.0,3.0,68,0.00,,,0.00,WeatherCatV1.15B25,2013-04-23 14:50:00,
2013-04-23 10:55:00,37.3,28.1,30.49,SSE,152,2.0,4.0,69,0.00,,,0.00,WeatherCatV1.15B25,2013-04-23 14:55:00,
2013-04-23 11:00:00,37.3,28.1,30.49,South,173,0.0,1.0,69,0.00,,,0.00,WeatherCatV1.15B25,2013-04-23 15:00:00,
2013-04-23 11:05:00,37.4,28.2,30.49,South,173,0.0,2.0,69,0.00,,,0.00,WeatherCatV1.15B25,2013-04-23 15:05:00,
2013-04-23 11:10:00,37.4,28.2,30.49,South,171,0.0,2.0,69,0.00,,,0.00,WeatherCatV1.15B25,2013-04-23 15:10:00,
2013-04-23 11:15:00,37.4,28.2,30.49,South,171,0.0,0.0,69,0.00,,,0.00,WeatherCatV1.15B25,2013-04-23 15:15:00,
2013-04-23 11:20:00,37.4,28.2,30.49,SSW,198,0.0,0.0,69,0.00,,,0.00,WeatherCatV1.15B25,2013-04-23 15:20:00,
2013-04-23 11:25:00,37.5,28.3,30.49,SSE,156,1.0,3.0,69,0.00,,,0.00,WeatherCatV1.15B25,2013-04-23 15:25:00,
2013-04-23 11:30:00,37.4,28.5,30.49,SSE,160,3.0,3.0,70,0.00,,,0.00,WeatherCatV1.15B25,2013-04-23 15:30:00,
2013-04-23 11:35:00,37.2,28.3,30.49,SSE,161,1.0,1.0,70,0.00,,,0.00,WeatherCatV1.15B25,2013-04-23 15:35:00,
2013-04-23 11:40:00,37.1,28.2,30.49,SSW,200,0.0,1.0,70,0.00,,,0.00,WeatherCatV1.15B25,2013-04-23 15:40:00,
2013-04-23 11:45:00,37.1,28.6,30.49,East,85,1.0,2.0,71,0.00,,,0.00,WeatherCatV1.15B25,2013-04-23 15:45:00,
2013-04-23 11:50:00,37.3,29.5,30.49,South,178,0.0,3.0,73,0.00,,,0.00,WeatherCatV1.15B25,2013-04-23 15:50:00,
2013-04-23 11:55:00,37.6,29.4,30.49,South,178,0.0,1.0,72,0.00,,,0.00,WeatherCatV1.15B25,2013-04-23 15:55:00,
2013-04-23 12:00:00,37.6,29.4,30.49,South,178,2.0,3.0,72,0.00,,,0.00,WeatherCatV1.15B25,2013-04-23 16:00:00,
2013-04-23 12:05:00,37.3,29.5,30.49,SE,127,0.0,3.0,73,0.00,,,0.00,WeatherCatV1.15B25,2013-04-23 16:05:00,
2013-04-23 12:10:00,37.2,29.4,30.48,SSE,152,1.0,2.0,73,0.00,,,0.00,WeatherCatV1.15B25,2013-04-23 16:10:00,
2013-04-23 12:15:00,37.2,29.7,30.48,SSE,152,1.0,2.0,74,0.00,,,0.00,WeatherCatV1.15B25,2013-04-23 16:15:00,
2013-04-23 12:20:00,37.1,29.9,30.48,SSE,153,2.0,2.0,75,0.00,,,0.00,WeatherCatV1.15B25,2013-04-23 16:20:00,
2013-04-23 12:25:00,37.0,29.8,30.48,SSE,163,0.0,2.0,75,0.00,,,0.00,WeatherCatV1.15B25,2013-04-23 16:25:00,
2013-04-23 12:30:00,36.8,30.0,30.48,SSE,162,0.0,2.0,76,0.00,,,0.00,WeatherCatV1.15B25,2013-04-23 16:30:00,
2013-04-23 12:35:00,36.8,30.3,30.48,SSE,162,0.0,0.0,77,0.00,,,0.00,WeatherCatV1.15B25,2013-04-23 16:35:00,
2013-04-23 12:40:00,36.6,30.7,30.47,SSE,161,0.0,1.0,79,0.00,,,0.00,WeatherCatV1.15B25,2013-04-23 16:40:00,
2013-04-23 12:45:00,36.6,31.0,30.47,SSE,162,0.0,1.0,80,0.00,,,0.00,WeatherCatV1.15B25,2013-04-23 16:45:00,
2013-04-23 12:50:00,36.5,30.9,30.47,SSE,162,0.0,1.0,80,0.00,,,0.00,WeatherCatV1.15B25,2013-04-23 16:50:00,
2013-04-23 12:55:00,36.4,30.8,30.46,SSE,162,0.0,0.0,80,0.00,,,0.00,WeatherCatV1.15B25,2013-04-23 16:55:00,
2013-04-23 13:00:00,36.4,31.1,30.47,SSE,162,0.0,0.0,81,0.00,,,0.00,WeatherCatV1.15B25,2013-04-23 17:00:00,
2013-04-23 13:05:00,36.4,31.4,30.47,SSE,161,0.0,0.0,82,0.00,,,0.00,WeatherCatV1.15B25,2013-04-23 17:05:00,
2013-04-23 13:10:00,36.3,31.3,30.46,SSE,162,0.0,0.0,82,0.00,,,0.00,WeatherCatV1.15B25,2013-04-23 17:10:00,
2013-04-23 13:15:00,36.4,31.7,30.46,SSE,162,0.0,1.0,83,0.00,,,0.00,WeatherCatV1.15B25,2013-04-23 17:15:00,
2013-04-23 13:20:00,36.4,31.4,30.46,SSE,161,0.0,0.0,82,0.00,,,0.00,WeatherCatV1.15B25,2013-04-23 17:20:00,
2013-04-23 13:25:00,36.4,31.4,30.46,SSE,162,0.0,0.0,82,0.00,,,0.00,WeatherCatV1.15B25,2013-04-23 17:25:00,
2013-04-23 13:30:00,36.5,31.8,30.45,SSE,162,0.0,0.0,83,0.00,,,0.00,WeatherCatV1.15B25,2013-04-23 17:30:00,
2013-04-23 13:35:00,36.6,31.9,30.45,SSE,162,0.0,0.0,83,0.00,,,0.00,WeatherCatV1.15B25,2013-04-23 17:35:00,
2013-04-23 13:40:00,36.5,31.5,30.45,SSE,161,0.0,0.0,82,0.00,,,0.00,WeatherCatV1.15B25,2013-04-23 17:40:00,
2013-04-23 13:45:00,36.6,31.9,30.45,SSE,161,0.0,2.0,83,0.00,,,0.00,WeatherCatV1.15B25,2013-04-23 17:45:00,
2013-04-23 13:50:00,36.5,31.8,30.44,SSE,162,0.0,0.0,83,0.00,,,0.00,WeatherCatV1.15B25,2013-04-23 17:50:00,
2013-04-23 13:55:00,36.5,32.1,30.44,SSE,161,0.0,0.0,84,0.00,,,0.00,WeatherCatV1.15B25,2013-04-23 17:55:00,
2013-04-23 14:00:00,36.6,31.9,30.44,SSE,161,0.0,0.0,83,0.00,,,0.00,WeatherCatV1.15B25,2013-04-23 18:00:00,
2013-04-23 14:05:00,36.6,31.9,30.44,SSE,162,0.0,0.0,83,0.00,,,0.00,WeatherCatV1.15B25,2013-04-23 18:05:00,
2013-04-23 14:10:00,36.8,32.1,30.44,SSE,162,0.0,1.0,83,0.00,,,0.00,WeatherCatV1.15B25,2013-04-23 18:10:00,
2013-04-23 14:15:00,37.1,32.4,30.44,SSE,162,0.0,1.0,83,0.00,,,0.00,WeatherCatV1.15B25,2013-04-23 18:15:00,
2013-04-23 14:20:00,37.2,32.2,30.43,SSE,161,0.0,0.0,82,0.00,,,0.00,WeatherCatV1.15B25,2013-04-23 18:20:00,
2013-04-23 14:25:00,37.3,32.3,30.43,SSE,161,0.0,1.0,82,0.00,,,0.00,WeatherCatV1.15B25,2013-04-23 18:25:00,
2013-04-23 14:30:00,37.5,32.5,30.42,SSE,162,0.0,2.0,82,0.00,,,0.00,WeatherCatV1.15B25,2013-04-23 18:30:00,
2013-04-23 14:35:00,37.7,32.7,30.42,SSE,161,0.0,2.0,82,0.00,,,0.00,WeatherCatV1.15B25,2013-04-23 18:35:00,
2013-04-23 14:40:00,37.8,32.5,30.42,SSE,161,0.0,0.0,81,0.00,,,0.00,WeatherCatV1.15B25,2013-04-23 18:40:00,
2013-04-23 14:45:00,38.0,32.4,30.42,SSE,162,0.0,0.0,80,0.00,,,0.00,WeatherCatV1.15B25,2013-04-23 18:45:00,
2013-04-23 14:50:00,38.1,32.5,30.42,SSE,162,0.0,0.0,80,0.00,,,0.00,WeatherCatV1.15B25,2013-04-23 18:50:00,
2013-04-23 14:55:00,38.3,32.7,30.41,SSE,161,0.0,0.0,80,0.00,,,0.00,WeatherCatV1.15B25,2013-04-23 18:55:00,
2013-04-23 15:00:00,38.7,33.1,30.41,SSE,161,0.0,0.0,80,0.00,,,0.00,WeatherCatV1.15B25,2013-04-23 19:00:00,
2013-04-23 15:05:00,38.9,33.0,30.40,SSE,162,0.0,1.0,79,0.00,,,0.00,WeatherCatV1.15B25,2013-04-23 19:05:00,
2013-04-23 15:10:00,39.1,33.1,30.40,SSE,161,0.0,2.0,79,0.00,,,0.00,WeatherCatV1.15B25,2013-04-23 19:10:00,
2013-04-23 15:15:00,39.4,33.1,30.40,SSE,161,0.0,0.0,78,0.00,,,0.00,WeatherCatV1.15B25,2013-04-23 19:15:00,
2013-04-23 15:20:00,39.5,33.2,30.40,SSE,162,0.0,1.0,78,0.00,,,0.00,WeatherCatV1.15B25,2013-04-23 19:20:00,
2013-04-23 15:25:00,39.7,33.4,30.40,SSE,162,0.0,1.0,78,0.00,,,0.00,WeatherCatV1.15B25,2013-04-23 19:25:00,
2013-04-23 15:30:00,39.8,33.5,30.39,SSE,162,0.0,0.0,78,0.00,,,0.00,WeatherCatV1.15B25,2013-04-23 19:30:00,
2013-04-23 15:35:00,40.0,33.4,30.39,SSE,162,0.0,0.0,77,0.00,,,0.00,WeatherCatV1.15B25,2013-04-23 19:35:00,
2013-04-23 15:40:00,40.1,33.5,30.39,SSE,162,1.0,2.0,77,0.00,,,0.00,WeatherCatV1.15B25,2013-04-23 19:40:00,
2013-04-23 15:45:00,40.3,33.7,30.39,SSE,162,0.0,1.0,77,0.00,,,0.00,WeatherCatV1.15B25,2013-04-23 19:45:00,
2013-04-23 15:50:00,40.6,34.3,30.38,SSE,161,0.0,1.0,78,0.00,,,0.00,WeatherCatV1.15B25,2013-04-23 19:50:00,
2013-04-23 15:55:00,40.7,34.1,30.39,SSE,162,0.0,2.0,77,0.00,,,0.00,WeatherCatV1.15B25,2013-04-23 19:55:00,
2013-04-23 16:00:00,40.7,34.1,30.38,SSE,162,0.0,0.0,77,0.00,,,0.00,WeatherCatV1.15B25,2013-04-23 20:00:00,
2013-04-23 16:05:00,40.8,34.2,30.38,SSE,162,0.0,0.0,77,0.00,,,0.00,WeatherCatV1.15B25,2013-04-23 20:05:00,
2013-04-23 16:10:00,41.0,34.4,30.38,SSE,161,0.0,0.0,77,0.00,,,0.00,WeatherCatV1.15B25,2013-04-23 20:10:00,
2013-04-23 16:15:00,41.0,34.0,30.38,SSE,162,0.0,1.0,76,0.00,,,0.00,WeatherCatV1.15B25,2013-04-23 20:15:00,
2013-04-23 16:20:00,41.0,34.4,30.38,SSE,161,0.0,2.0,77,0.00,,,0.00,WeatherCatV1.15B25,2013-04-23 20:20:00,
2013-04-23 16:25:00,40.9,34.3,30.38,SSE,161,1.0,2.0,77,0.00,,,0.00,WeatherCatV1.15B25,2013-04-23 20:25:00,
2013-04-23 16:30:00,40.9,34.3,30.38,SSE,161,0.0,1.0,77,0.00,,,0.00,WeatherCatV1.15B25,2013-04-23 20:30:00,
2013-04-23 16:35:00,40.9,34.3,30.37,SSE,161,0.0,2.0,77,0.00,,,0.00,WeatherCatV1.15B25,2013-04-23 20:35:00,
2013-04-23 16:40:00,40.9,34.3,30.37,SSE,161,0.0,0.0,77,0.00,,,0.00,WeatherCatV1.15B25,2013-04-23 20:40:00,
2013-04-23 16:45:00,40.8,34.2,30.37,SSE,161,0.0,0.0,77,0.00,,,0.00,WeatherCatV1.15B25,2013-04-23 20:45:00,
2013-04-23 16:50:00,40.8,34.2,30.37,SSE,161,0.0,0.0,77,0.00,,,0.00,WeatherCatV1.15B25,2013-04-23 20:50:00,
2013-04-23 16:55:00,40.9,34.3,30.37,SSE,161,0.0,1.0,77,0.00,,,0.00,WeatherCatV1.15B25,2013-04-23 20:55:00,
2013-04-23 17:00:00,40.8,34.2,30.37,SSE,161,0.0,1.0,77,0.00,,,0.00,WeatherCatV1.15B25,2013-04-23 21:00:00,
2013-04-23 17:05:00,40.7,34.1,30.37,SSE,161,0.0,0.0,77,0.00,,,0.00,WeatherCatV1.15B25,2013-04-23 21:05:00,
2013-04-23 17:10:00,40.7,34.1,30.36,SSE,161,0.0,1.0,77,0.00,,,0.00,WeatherCatV1.15B25,2013-04-23 21:10:00,
2013-04-23 17:15:00,40.7,34.4,30.36,SSE,161,0.0,1.0,78,0.00,,,0.00,WeatherCatV1.15B25,2013-04-23 21:15:00,
2013-04-23 17:20:00,40.8,34.2,30.36,SSE,161,0.0,1.0,77,0.00,,,0.00,WeatherCatV1.15B25,2013-04-23 21:20:00,
2013-04-23 17:25:00,40.8,34.2,30.36,SSE,161,0.0,0.0,77,0.00,,,0.00,WeatherCatV1.15B25,2013-04-23 21:25:00,
2013-04-23 17:30:00,40.8,34.2,30.36,SSE,161,0.0,0.0,77,0.00,,,0.00,WeatherCatV1.15B25,2013-04-23 21:30:00,
2013-04-23 17:35:00,40.7,34.1,30.36,SSE,161,0.0,0.0,77,0.00,,,0.00,WeatherCatV1.15B25,2013-04-23 21:35:00,
2013-04-23 17:40:00,40.6,34.0,30.35,SSE,161,0.0,0.0,77,0.00,,,0.00,WeatherCatV1.15B25,2013-04-23 21:40:00,
2013-04-23 17:45:00,40.6,34.3,30.35,SSE,161,0.0,1.0,78,0.00,,,0.00,WeatherCatV1.15B25,2013-04-23 21:45:00,
2013-04-23 17:50:00,40.6,34.3,30.35,SSE,161,0.0,0.0,78,0.00,,,0.00,WeatherCatV1.15B25,2013-04-23 21:50:00,
2013-04-23 17:55:00,40.6,34.3,30.35,SSE,161,0.0,0.0,78,0.00,,,0.00,WeatherCatV1.15B25,2013-04-23 21:55:00,
2013-04-23 18:00:00,40.6,34.3,30.35,SSE,161,0.0,0.0,78,0.00,,,0.00,WeatherCatV1.15B25,2013-04-23 22:00:00,
2013-04-23 18:05:00,40.6,34.3,30.35,SSE,161,0.0,0.0,78,0.00,,,0.00,WeatherCatV1.15B25,2013-04-23 22:05:00,
2013-04-23 18:10:00,40.6,34.3,30.35,SSE,161,0.0,0.0,78,0.00,,,0.00,WeatherCatV1.15B25,2013-04-23 22:10:00,
2013-04-23 18:15:00,40.5,34.2,30.35,SSE,161,0.0,0.0,78,0.00,,,0.00,WeatherCatV1.15B25,2013-04-23 22:15:00,
2013-04-23 18:20:00,40.5,34.2,30.34,SSE,161,0.0,0.0,78,0.00,,,0.00,WeatherCatV1.15B25,2013-04-23 22:20:00,
2013-04-23 18:25:00,40.5,34.5,30.34,SSE,161,0.0,0.0,79,0.00,,,0.00,WeatherCatV1.15B25,2013-04-23 22:25:00,
2013-04-23 18:30:00,40.5,34.2,30.34,SSE,161,0.0,0.0,78,0.00,,,0.00,WeatherCatV1.15B25,2013-04-23 22:30:00,
2013-04-23 18:35:00,40.5,34.2,30.34,SSE,161,0.0,0.0,78,0.00,,,0.00,WeatherCatV1.15B25,2013-04-23 22:35:00,
2013-04-23 18:40:00,40.5,34.5,30.34,SSE,161,0.0,0.0,79,0.00,,,0.00,WeatherCatV1.15B25,2013-04-23 22:40:00,
2013-04-23 18:45:00,40.5,34.5,30.34,SSE,161,0.0,0.0,79,0.00,,,0.00,WeatherCatV1.15B25,2013-04-23 22:45:00,
2013-04-23 18:50:00,40.5,34.5,30.34,SSE,161,0.0,0.0,79,0.00,,,0.00,WeatherCatV1.15B25,2013-04-23 22:50:00,
2013-04-23 18:55:00,40.4,34.4,30.33,SSE,161,0.0,0.0,79,0.00,,,0.00,WeatherCatV1.15B25,2013-04-23 22:55:00,
2013-04-23 19:00:00,40.4,34.4,30.32,SSE,161,0.0,0.0,79,0.00,,,0.00,WeatherCatV1.15B25,2013-04-23 23:00:00,
2013-04-23 19:05:00,40.4,34.4,30.32,SSE,161,0.0,0.0,79,0.00,,,0.00,WeatherCatV1.15B25,2013-04-23 23:05:00,
2013-04-23 19:10:00,40.3,34.3,30.32,SSE,161,0.0,0.0,79,0.00,,,0.00,WeatherCatV1.15B25,2013-04-23 23:10:00,
2013-04-23 19:15:00,40.3,34.3,30.31,SSE,161,0.0,0.0,79,0.00,,,0.00,WeatherCatV1.15B25,2013-04-23 23:15:00,
2013-04-23 19:20:00,40.3,34.3,30.32,SSE,161,0.0,0.0,79,0.00,,,0.00,WeatherCatV1.15B25,2013-04-23 23:20:00,
2013-04-23 19:25:00,40.3,34.3,30.32,SSE,161,0.0,0.0,79,0.00,,,0.00,WeatherCatV1.15B25,2013-04-23 23:25:00,
2013-04-23 19:30:00,40.2,34.2,30.32,SSE,161,0.0,0.0,79,0.00,,,0.00,WeatherCatV1.15B25,2013-04-23 23:30:00,
2013-04-23 19:35:00,40.2,34.5,30.32,SSE,161,0.0,0.0,80,0.00,,,0.00,WeatherCatV1.15B25,2013-04-23 23:35:00,
2013-04-23 19:40:00,40.2,34.5,30.32,SSE,161,0.0,0.0,80,0.00,,,0.00,WeatherCatV1.15B25,2013-04-23 23:40:00,
2013-04-23 19:45:00,40.1,34.1,30.32,SSE,161,0.0,0.0,79,0.00,,,0.00,WeatherCatV1.15B25,2013-04-23 23:45:00,
2013-04-23 19:50:00,40.1,34.4,30.32,SSE,161,0.0,0.0,80,0.00,,,0.00,WeatherCatV1.15B25,2013-04-23 23:50:00,
2013-04-23 19:55:00,40.1,34.4,30.31,SSE,161,0.0,0.0,80,0.00,,,0.00,WeatherCatV1.15B25,2013-04-23 23:55:00,
2013-04-23 20:00:00,40.0,34.3,30.31,SSE,161,0.0,0.0,80,0.00,,,0.00,WeatherCatV1.15B25,2013-04-24 00:00:00,
2013-04-23 20:05:00,40.0,34.3,30.31,SSE,161,0.0,0.0,80,0.00,,,0.00,WeatherCatV1.15B25,2013-04-24 00:05:00,
2013-04-23 20:10:00,40.0,34.3,30.30,SSE,161,0.0,0.0,80,0.00,,,0.00,WeatherCatV1.15B25,2013-04-24 00:10:00,
2013-04-23 20:15:00,39.9,34.6,30.30,SSE,161,0.0,0.0,81,0.00,,,0.00,WeatherCatV1.15B25,2013-04-24 00:15:00,
2013-04-23 20:20:00,39.8,34.5,30.30,SSE,161,0.0,0.0,81,0.00,,,0.00,WeatherCatV1.15B25,2013-04-24 00:20:00,
2013-04-23 20:25:00,39.8,34.5,30.30,SSE,161,0.0,0.0,81,0.00,,,0.00,WeatherCatV1.15B25,2013-04-24 00:25:00,
2013-04-23 20:30:00,39.8,34.5,30.31,SSE,161,0.0,0.0,81,0.00,,,0.00,WeatherCatV1.15B25,2013-04-24 00:30:00,
2013-04-23 20:35:00,39.7,34.7,30.31,SSE,161,0.0,0.0,82,0.00,,,0.00,WeatherCatV1.15B25,2013-04-24 00:35:00,
2013-04-23 20:40:00,39.6,34.6,30.31,SSE,161,0.0,0.0,82,0.00,,,0.00,WeatherCatV1.15B25,2013-04-24 00:40:00,
2013-04-23 20:45:00,39.6,34.6,30.31,SSE,161,0.0,0.0,82,0.00,,,0.00,WeatherCatV1.15B25,2013-04-24 00:45:00,
2013-04-23 20:50:00,39.5,34.5,30.30,SSE,161,0.0,0.0,82,0.00,,,0.00,WeatherCatV1.15B25,2013-04-24 00:50:00,
2013-04-23 20:55:00,39.5,34.5,30.30,SSE,161,0.0,0.0,82,0.00,,,0.00,WeatherCatV1.15B25,2013-04-24 00:55:00,
2013-04-23 21:00:00,39.5,34.5,30.30,SSE,161,0.0,0.0,82,0.00,,,0.00,WeatherCatV1.15B25,2013-04-24 01:00:00,
2013-04-23 21:06:00,39.4,34.4,30.29,SSE,161,0.0,0.0,82,0.00,,,0.00,WeatherCatV1.15B25,2013-04-24 01:06:00,
2013-04-23 21:11:00,39.4,34.7,30.29,SSE,161,0.0,0.0,83,0.00,,,0.00,WeatherCatV1.15B25,2013-04-24 01:11:00,
2013-04-23 21:16:00,39.3,34.6,30.28,SSE,161,0.0,0.0,83,0.00,,,0.00,WeatherCatV1.15B25,2013-04-24 01:16:00,
2013-04-23 21:21:00,39.3,34.6,30.28,SSE,161,0.0,0.0,83,0.00,,,0.00,WeatherCatV1.15B25,2013-04-24 01:21:00,
2013-04-23 21:26:00,39.3,34.6,30.28,SSE,161,0.0,0.0,83,0.00,,,0.00,WeatherCatV1.15B25,2013-04-24 01:26:00,
2013-04-23 21:31:00,39.2,34.5,30.28,SSE,161,0.0,0.0,83,0.00,,,0.00,WeatherCatV1.15B25,2013-04-24 01:31:00,
2013-04-23 21:36:00,39.2,34.5,30.28,SSE,161,0.0,0.0,83,0.00,,,0.00,WeatherCatV1.15B25,2013-04-24 01:36:00,
2013-04-23 21:42:00,39.1,34.4,30.28,SSE,161,0.0,0.0,83,0.00,,,0.00,WeatherCatV1.15B25,2013-04-24 01:42:00,
2013-04-23 21:47:00,39.1,34.4,30.27,SSE,161,0.0,0.0,83,0.00,,,0.00,WeatherCatV1.15B25,2013-04-24 01:47:00,
2013-04-23 21:52:00,39.1,34.4,30.27,SSE,161,0.0,0.0,83,0.00,,,0.00,WeatherCatV1.15B25,2013-04-24 01:52:00,
2013-04-23 21:57:00,39.1,34.7,30.27,SSE,161,0.0,0.0,84,0.00,,,0.00,WeatherCatV1.15B25,2013-04-24 01:57:00,
2013-04-23 22:02:00,39.1,34.7,30.27,SSE,161,0.0,0.0,84,0.00,,,0.00,WeatherCatV1.15B25,2013-04-24 02:02:00,
2013-04-23 22:07:00,39.0,34.6,30.27,SSE,161,0.0,0.0,84,0.00,,,0.00,WeatherCatV1.15B25,2013-04-24 02:07:00,
2013-04-23 22:12:00,39.0,34.9,30.26,SSE,161,0.0,0.0,85,0.00,,,0.00,WeatherCatV1.15B25,2013-04-24 02:12:00,
2013-04-23 22:17:00,38.9,34.8,30.26,SSE,161,0.0,0.0,85,0.00,,,0.00,WeatherCatV1.15B25,2013-04-24 02:17:00,
2013-04-23 22:23:00,38.8,34.7,30.27,SSE,161,0.0,0.0,85,0.00,,,0.00,WeatherCatV1.15B25,2013-04-24 02:23:00,
2013-04-23 22:28:00,38.8,34.7,30.27,SSE,161,0.0,0.0,85,0.00,,,0.00,WeatherCatV1.15B25,2013-04-24 02:28:00,
2013-04-23 22:33:00,38.7,34.6,30.27,SSE,161,0.0,0.0,85,0.00,,,0.00,WeatherCatV1.15B25,2013-04-24 02:33:00,
2013-04-23 22:38:00,38.7,34.9,30.26,SSE,161,0.0,0.0,86,0.00,,,0.00,WeatherCatV1.15B25,2013-04-24 02:38:00,
2013-04-23 22:43:00,38.7,34.9,30.26,SSE,161,0.0,0.0,86,0.00,,,0.00,WeatherCatV1.15B25,2013-04-24 02:43:00,
2013-04-23 22:48:00,38.7,34.9,30.26,SSE,161,0.0,0.0,86,0.00,,,0.00,WeatherCatV1.15B25,2013-04-24 02:48:00,
2013-04-23 22:53:00,38.6,34.8,30.25,SSE,161,0.0,0.0,86,0.00,,,0.00,WeatherCatV1.15B25,2013-04-24 02:53:00,
2013-04-23 22:59:00,38.6,34.8,30.25,SSE,161,0.0,0.0,86,0.00,,,0.00,WeatherCatV1.15B25,2013-04-24 02:59:00,
2013-04-23 23:04:00,38.6,34.8,30.25,SSE,161,0.0,0.0,86,0.00,,,0.00,WeatherCatV1.15B25,2013-04-24 03:04:00,
2013-04-23 23:10:00,38.6,35.1,30.24,SSE,161,0.0,0.0,87,0.00,,,0.00,WeatherCatV1.15B25,2013-04-24 03:10:00,
2013-04-23 23:15:00,38.6,35.1,30.24,SSE,161,0.0,1.0,87,0.00,,,0.00,WeatherCatV1.15B25,2013-04-24 03:15:00,
2013-04-23 23:20:00,38.6,35.1,30.24,SSE,161,0.0,0.0,87,0.00,,,0.00,WeatherCatV1.15B25,2013-04-24 03:20:00,
2013-04-23 23:25:00,38.6,35.1,30.24,SSE,161,0.0,0.0,87,0.00,,,0.00,WeatherCatV1.15B25,2013-04-24 03:25:00,
2013-04-23 23:30:00,38.6,35.1,30.23,SSE,161,0.0,0.0,87,0.00,,,0.00,WeatherCatV1.15B25,2013-04-24 03:30:00,
2013-04-23 23:35:00,38.6,35.1,30.23,SSE,161,0.0,0.0,87,0.00,,,0.00,WeatherCatV1.15B25,2013-04-24 03:35:00,
2013-04-23 23:40:00,38.6,35.1,30.23,SSE,161,0.0,0.0,87,0.00,,,0.00,WeatherCatV1.15B25,2013-04-24 03:40:00,
2013-04-23 23:45:00,38.6,35.1,30.22,SSE,161,0.0,0.0,87,0.00,,,0.00,WeatherCatV1.15B25,2013-04-24 03:45:00,
2013-04-23 23:51:00,38.6,35.1,30.22,SSE,161,0.0,0.0,87,0.00,,,0.00,WeatherCatV1.15B25,2013-04-24 03:51:00,
2013-04-23 23:57:00,38.6,35.1,30.21,SSE,161,0.0,0.0,87,0.00,,,0.00,WeatherCatV1.15B25,2013-04-24 03:57:00,